createdAt,value
2023-10-11T00:00:31.218Z,91816.75
2023-10-11T00:02:57.874Z,91815.63
2023-10-11T00:05:25.216Z,91807.63
2023-10-11T00:07:59.396Z,91811.22
2023-10-11T00:10:25.762Z,91815.91
2023-10-11T00:12:53.125Z,91821.09
2023-10-11T00:15:19.511Z,91809.59
2023-10-11T00:17:48.958Z,91810.84
2023-10-11T00:20:29.090Z,91809.41
2023-10-11T00:22:55.889Z,91811.06
2023-10-11T00:25:25.737Z,91817.41
2023-10-11T00:27:52.657Z,91814.00
2023-10-11T00:30:19.558Z,91815.97
2023-10-11T00:32:49.013Z,91814.00
2023-10-11T00:35:25.598Z,91814.84
2023-10-11T00:37:55.681Z,91813.63
2023-10-11T00:40:33.092Z,91808.03
2023-10-11T00:42:59.754Z,91812.56
2023-10-11T00:45:32.291Z,91811.88
2023-10-11T00:48:00.410Z,91807.94
2023-10-11T00:50:27.443Z,91807.41
2023-10-11T00:52:56.370Z,91803.47
2023-10-11T00:55:25.779Z,91801.63
2023-10-11T00:57:54.673Z,91801.91
2023-10-11T01:00:24.700Z,91807.09
2023-10-11T01:02:53.302Z,91801.50
2023-10-11T01:05:20.393Z,91798.94
2023-10-11T01:07:46.814Z,91795.00
2023-10-11T01:10:13.215Z,91797.50
2023-10-11T01:12:42.542Z,91804.81
2023-10-11T01:15:15.496Z,91796.78
2023-10-11T01:17:42.127Z,91800.59
2023-10-11T01:20:14.202Z,91799.06
2023-10-11T01:22:46.563Z,91795.63
2023-10-11T01:25:21.954Z,91799.41
2023-10-11T01:27:48.514Z,91792.41
2023-10-11T01:30:15.254Z,91792.16
2023-10-11T01:32:45.051Z,91798.91
2023-10-11T01:35:14.037Z,91790.31
2023-10-11T01:37:44.757Z,91794.69
2023-10-11T01:40:25.357Z,91790.22
2023-10-11T01:42:52.007Z,91785.28
2023-10-11T01:45:20.816Z,91785.28
2023-10-11T01:47:47.652Z,91777.69
2023-10-11T01:50:17.345Z,91779.09
2023-10-11T01:52:43.999Z,91782.78
2023-10-11T01:55:16.524Z,91775.06
2023-10-11T01:57:46.514Z,91777.59
2023-10-11T02:00:28.677Z,91765.66
2023-10-11T02:02:58.495Z,91776.34
2023-10-11T02:05:25.097Z,91774.53
2023-10-11T02:07:51.874Z,91773.13
2023-10-11T02:10:26.667Z,91769.34
2023-10-11T02:12:56.707Z,91774.38
2023-10-11T02:15:28.605Z,91767.38
2023-10-11T02:17:55.682Z,91763.53
2023-10-11T02:20:22.898Z,91765.81
2023-10-11T02:22:52.088Z,91764.53
2023-10-11T02:25:19.295Z,91765.13
2023-10-11T02:27:46.541Z,91758.09
2023-10-11T02:30:20.892Z,91758.53
2023-10-11T02:32:47.787Z,91767.50
2023-10-11T02:35:14.558Z,91762.31
2023-10-11T02:37:41.460Z,91757.41
2023-10-11T02:40:09.072Z,91755.44
2023-10-11T02:42:38.357Z,91756.69
2023-10-11T02:45:07.786Z,91754.03
2023-10-11T02:47:37.264Z,91756.69
2023-10-11T02:50:06.660Z,91760.34
2023-10-11T02:52:41.009Z,91760.34
2023-10-11T02:55:23.215Z,91756.81
2023-10-11T02:57:58.744Z,91760.78
2023-10-11T03:00:25.172Z,91752.19
2023-10-11T03:02:57.890Z,91751.22
2023-10-11T03:05:30.615Z,91752.75
2023-10-11T03:07:57.300Z,91752.06
2023-10-11T03:10:23.713Z,91759.22
2023-10-11T03:12:53.222Z,91757.38
2023-10-11T03:15:22.590Z,91755.44
2023-10-11T03:17:54.247Z,91751.34
2023-10-11T03:20:30.635Z,91749.38
2023-10-11T03:23:01.604Z,91752.34
2023-10-11T03:25:28.814Z,91745.88
2023-10-11T03:27:55.169Z,91741.94
2023-10-11T03:30:26.066Z,91746.31
2023-10-11T03:32:53.051Z,91748.13
2023-10-11T03:35:20.248Z,91745.19
2023-10-11T03:37:58.530Z,91741.22
2023-10-11T03:40:55.227Z,91746.69
2023-10-11T03:43:22.029Z,91755.13
2023-10-11T03:45:51.815Z,91752.59
2023-10-11T03:48:22.167Z,91748.56
2023-10-11T03:50:49.245Z,91749.94
2023-10-11T03:53:16.385Z,91749.94
2023-10-11T03:55:49.090Z,91748.22
2023-10-11T03:58:34.623Z,91741.63
2023-10-11T04:01:07.542Z,91749.53
2023-10-11T04:03:35.421Z,91749.81
2023-10-11T04:06:02.333Z,91744.47
2023-10-11T04:08:28.828Z,91743.91
2023-10-11T04:10:55.267Z,91744.88
2023-10-11T04:13:26.427Z,91747.56
2023-10-11T04:15:55.725Z,91750.63
2023-10-11T04:18:34.701Z,91753.84
2023-10-11T04:21:10.267Z,91755.25
2023-10-11T04:23:40.897Z,91759.28
2023-10-11T04:26:25.662Z,91758.59
2023-10-11T04:28:53.318Z,91751.06
2023-10-11T04:31:29.780Z,91756.53
2023-10-11T04:33:56.244Z,91760.06
2023-10-11T04:36:23.052Z,91759.94
2023-10-11T04:38:50.352Z,91761.16
2023-10-11T04:41:18.969Z,91771.13
2023-10-11T04:44:05.825Z,91760.72
2023-10-11T04:46:32.368Z,91767.00
2023-10-11T04:49:18.909Z,91768.56
2023-10-11T04:51:47.780Z,91768.31
2023-10-11T04:54:19.316Z,91774.50
2023-10-11T04:56:46.191Z,91779.56
2023-10-11T04:59:18.750Z,91776.91
2023-10-11T05:01:48.092Z,91783.25
2023-10-11T05:04:16.257Z,91782.25
2023-10-11T05:06:43.681Z,91780.84
2023-10-11T05:09:23.094Z,91780.69
2023-10-11T05:11:54.818Z,91782.94
2023-10-11T05:14:30.799Z,91783.09
2023-10-11T05:17:00.577Z,91784.06
2023-10-11T05:19:27.555Z,91784.50
2023-10-11T05:22:03.919Z,91780.28
2023-10-11T05:24:53.116Z,91778.59
2023-10-11T05:27:28.468Z,91781.13
2023-10-11T05:30:07.155Z,91790.38
2023-10-11T05:32:34.028Z,91791.09
2023-10-11T05:35:16.062Z,91784.03
2023-10-11T05:38:01.105Z,91784.75
2023-10-11T05:40:45.973Z,91784.44
2023-10-11T05:43:31.000Z,91789.63
2023-10-11T05:46:15.676Z,91787.41
2023-10-11T05:49:00.476Z,91786.69
2023-10-11T05:51:29.601Z,91788.50
2023-10-11T05:53:56.153Z,91787.56
2023-10-11T05:56:22.546Z,91790.06
2023-10-11T05:58:53.143Z,91794.47
2023-10-11T06:01:22.276Z,91797.94
2023-10-11T06:03:52.449Z,91799.78
2023-10-11T06:06:25.406Z,91794.59
2023-10-11T06:08:52.054Z,91809.19
2023-10-11T06:11:19.798Z,91803.56
2023-10-11T06:13:49.764Z,91802.53
2023-10-11T06:16:16.861Z,91808.03
2023-10-11T06:19:12.350Z,91811.28
2023-10-11T06:21:57.051Z,91808.09
2023-10-11T06:24:26.685Z,91812.03
2023-10-11T06:26:53.677Z,91804.84
2023-10-11T06:29:24.320Z,91810.19
2023-10-11T06:31:54.015Z,91820.28
2023-10-11T06:34:33.307Z,91819.03
2023-10-11T06:37:01.310Z,91816.94
2023-10-11T06:39:43.240Z,91829.44
2023-10-11T06:42:22.866Z,91828.63
2023-10-11T06:44:53.762Z,91819.47
2023-10-11T06:47:20.862Z,91829.44
2023-10-11T06:49:56.674Z,91828.03
2023-10-11T06:52:26.785Z,91820.31
2023-10-11T06:55:12.156Z,91823.13
2023-10-11T06:57:41.155Z,91825.91
2023-10-11T07:00:22.518Z,91818.63
2023-10-11T07:02:49.780Z,91825.75
2023-10-11T07:05:19.025Z,91821.59
2023-10-11T07:07:48.971Z,91826.78
2023-10-11T07:10:33.686Z,91824.69
2023-10-11T07:13:06.929Z,91828.81
2023-10-11T07:15:38.701Z,91829.31
2023-10-11T07:18:09.478Z,91832.94
2023-10-11T07:20:48.951Z,91825.06
2023-10-11T07:23:21.368Z,91831.13
2023-10-11T07:26:20.466Z,91831.53
2023-10-11T07:28:51.426Z,91831.22
2023-10-11T07:31:18.326Z,91835.03
2023-10-11T07:33:51.099Z,91831.53
2023-10-11T07:36:20.047Z,91833.25
2023-10-11T07:38:55.807Z,91841.69
2023-10-11T07:41:28.720Z,91831.75
2023-10-11T07:43:56.940Z,91837.47
2023-10-11T07:46:23.473Z,91833.03
2023-10-11T07:48:49.986Z,91829.16
2023-10-11T07:51:16.448Z,91831.00
2023-10-11T07:53:43.446Z,91837.72
2023-10-11T07:56:16.864Z,91829.81
2023-10-11T07:58:46.709Z,91835.31
2023-10-11T08:01:16.641Z,91834.78
2023-10-11T08:03:45.482Z,91836.94
2023-10-11T08:06:14.934Z,91837.09
2023-10-11T08:08:41.684Z,91834.31
2023-10-11T08:11:20.052Z,91824.44
2023-10-11T08:13:48.643Z,91831.16
2023-10-11T08:16:19.086Z,91827.03
2023-10-11T08:18:50.685Z,91829.44
2023-10-11T08:21:19.909Z,91820.28
2023-10-11T08:23:51.528Z,91824.06
2023-10-11T08:26:19.195Z,91822.59
2023-10-11T08:28:52.880Z,91830.50
2023-10-11T08:31:30.620Z,91812.53
2023-10-11T08:33:57.028Z,91820.63
2023-10-11T08:36:23.391Z,91816.19
2023-10-11T08:38:49.759Z,91816.72
2023-10-11T08:41:16.936Z,91821.88
2023-10-11T08:43:43.969Z,91818.31
2023-10-11T08:46:13.097Z,91814.53
2023-10-11T08:48:40.003Z,91811.69
2023-10-11T08:51:13.106Z,91804.00
2023-10-11T08:53:39.705Z,91806.78
2023-10-11T08:56:06.761Z,91803.31
2023-10-11T08:58:33.129Z,91803.31
2023-10-11T09:01:00.693Z,91806.69
2023-10-11T09:03:30.268Z,91803.28
2023-10-11T09:05:59.738Z,91793.59
2023-10-11T09:08:35.071Z,91782.63
2023-10-11T09:11:07.410Z,91791.50
2023-10-11T09:13:37.832Z,91786.72
2023-10-11T09:16:13.520Z,91778.75
2023-10-11T09:18:40.325Z,91784.91
2023-10-11T09:21:19.036Z,91783.50
2023-10-11T09:23:51.646Z,91782.59
2023-10-11T09:26:41.749Z,91777.16
2023-10-11T09:29:09.724Z,91775.31
2023-10-11T09:31:37.153Z,91776.25
2023-10-11T09:34:08.518Z,91780.44
2023-10-11T09:36:35.193Z,91784.41
2023-10-11T09:39:03.744Z,91775.00
2023-10-11T09:41:39.924Z,91765.28
2023-10-11T09:44:09.278Z,91774.03
2023-10-11T09:46:35.637Z,91771.34
2023-10-11T09:49:03.198Z,91770.22
2023-10-11T09:51:29.974Z,91770.88
2023-10-11T09:54:03.034Z,91770.09
2023-10-11T09:56:49.950Z,91765.56
2023-10-11T09:59:31.746Z,91769.03
2023-10-11T10:02:04.923Z,91765.75
2023-10-11T10:04:52.786Z,91763.78
2023-10-11T10:07:23.115Z,91761.50
2023-10-11T10:09:55.481Z,91766.19
2023-10-11T10:12:24.057Z,91764.00
2023-10-11T10:14:54.430Z,91757.91
2023-10-11T10:17:21.066Z,91750.09
2023-10-11T10:19:47.781Z,91753.56
2023-10-11T10:22:24.674Z,91748.34
2023-10-11T10:24:51.989Z,91747.22
2023-10-11T10:27:24.586Z,91738.09
2023-10-11T10:30:01.016Z,91741.84
2023-10-11T10:32:27.837Z,91736.59
2023-10-11T10:35:13.058Z,91733.53
2023-10-11T10:37:48.602Z,91728.41
2023-10-11T10:40:26.166Z,91731.50
2023-10-11T10:43:09.931Z,91718.13
2023-10-11T10:45:36.842Z,91721.13
2023-10-11T10:48:40.744Z,91716.72
2023-10-11T10:51:07.485Z,91712.59
2023-10-11T10:53:40.323Z,91712.81
2023-10-11T10:56:07.114Z,91703.09
2023-10-11T10:58:33.461Z,91707.75
2023-10-11T11:01:00.618Z,91698.50
2023-10-11T11:03:33.242Z,91700.69
2023-10-11T11:06:00.929Z,91697.16
2023-10-11T11:08:32.518Z,91694.31
2023-10-11T11:11:20.290Z,91691.50
2023-10-11T11:13:48.372Z,91681.53
2023-10-11T11:16:18.419Z,91684.22
2023-10-11T11:18:45.173Z,91677.75
2023-10-11T11:21:26.272Z,91676.94
2023-10-11T11:23:53.200Z,91672.94
2023-10-11T11:26:31.968Z,91664.97
2023-10-11T11:29:10.809Z,91659.13
2023-10-11T11:31:53.947Z,91653.03
2023-10-11T11:34:35.213Z,91643.88
2023-10-11T11:39:37.149Z,91651.94
2023-10-11T11:42:19.054Z,91636.94
2023-10-11T11:44:46.894Z,91640.53
2023-10-11T11:47:13.447Z,91637.94
2023-10-11T11:49:39.869Z,91633.03
2023-10-11T11:52:08.380Z,91631.56
2023-10-11T11:54:35.171Z,91623.25
2023-10-11T11:57:01.952Z,91617.41
2023-10-11T11:59:30.788Z,91622.84
2023-10-11T12:02:00.696Z,91612.22
2023-10-11T12:04:30.928Z,91611.09
2023-10-11T12:07:01.033Z,91614.69
2023-10-11T12:09:51.755Z,91611.19
2023-10-11T12:12:26.991Z,91599.38
2023-10-11T12:14:53.714Z,91600.25
2023-10-11T12:17:20.096Z,91596.03
2023-10-11T12:19:46.827Z,91592.91
2023-10-11T12:22:15.079Z,91585.47
2023-10-11T12:24:45.583Z,91585.63
2023-10-11T12:27:13.079Z,91583.28
2023-10-11T12:29:43.401Z,91582.28
2023-10-11T12:32:15.278Z,91581.72
2023-10-11T12:34:45.107Z,91576.19
2023-10-11T12:37:15.611Z,91567.78
2023-10-11T12:39:42.093Z,91571.53
2023-10-11T12:42:12.454Z,91564.03
2023-10-11T12:44:42.169Z,91553.59
2023-10-11T12:47:11.585Z,91560.09
2023-10-11T12:49:39.194Z,91559.25
2023-10-11T12:52:07.331Z,91550.47
2023-10-11T12:54:33.939Z,91554.13
2023-10-11T12:57:00.954Z,91548.38
2023-10-11T12:59:27.434Z,91543.44
2023-10-11T13:01:53.989Z,91543.34
2023-10-11T13:04:25.271Z,91549.16
2023-10-11T13:06:51.951Z,91542.56
2023-10-11T13:09:22.481Z,91542.72
2023-10-11T13:11:49.041Z,91548.97
2023-10-11T13:14:21.847Z,91534.47
2023-10-11T13:16:49.207Z,91530.47
2023-10-11T13:19:19.310Z,91527.25
2023-10-11T13:21:46.309Z,91533.13
2023-10-11T13:24:13.340Z,91535.75
2023-10-11T13:26:44.847Z,91527.94
2023-10-11T13:29:12.837Z,91529.28
2023-10-11T13:31:41.717Z,91532.59
2023-10-11T13:34:08.823Z,91516.66
2023-10-11T13:36:35.304Z,91514.81
2023-10-11T13:39:02.144Z,91515.00
2023-10-11T13:41:29.581Z,91509.81
2023-10-11T13:43:56.645Z,91508.88
2023-10-11T13:46:23.684Z,91505.00
2023-10-11T13:48:53.297Z,91503.53
2023-10-11T13:51:20.012Z,91504.91
2023-10-11T13:53:46.703Z,91505.06
2023-10-11T13:56:15.459Z,91509.19
2023-10-11T13:58:47.249Z,91502.59
2023-10-11T14:01:37.204Z,91498.03
2023-10-11T14:04:17.038Z,91501.31
2023-10-11T14:06:44.171Z,91496.81
2023-10-11T14:09:28.529Z,91497.44
2023-10-11T14:11:54.937Z,91498.16
2023-10-11T14:14:23.165Z,91493.22
2023-10-11T14:16:49.598Z,91486.44
2023-10-11T14:19:17.636Z,91483.69
2023-10-11T14:21:48.435Z,91483.41
2023-10-11T14:24:16.534Z,91480.66
2023-10-11T14:26:43.354Z,91489.50
2023-10-11T14:29:09.707Z,91485.41
2023-10-11T14:31:36.253Z,91482.56
2023-10-11T14:34:06.208Z,91483.91
2023-10-11T14:36:32.712Z,91471.63
2023-10-11T14:38:59.598Z,91480.31
2023-10-11T14:41:26.021Z,91480.97
2023-10-11T14:43:53.079Z,91477.63
2023-10-11T14:46:20.520Z,91473.88
2023-10-11T14:48:49.798Z,91469.00
2023-10-11T14:51:17.746Z,91478.50
2023-10-11T14:53:45.633Z,91475.81
2023-10-11T14:56:12.204Z,91473.22
2023-10-11T14:58:38.626Z,91478.50
2023-10-11T15:01:05.941Z,91470.44
2023-10-11T15:03:32.373Z,91472.41
2023-10-11T15:05:58.838Z,91476.16
2023-10-11T15:08:25.184Z,91476.50
2023-10-11T15:10:51.555Z,91469.97
2023-10-11T15:13:18.075Z,91475.81
2023-10-11T15:15:45.273Z,91476.56
2023-10-11T15:18:13.217Z,91471.81
2023-10-11T15:20:39.768Z,91473.97
2023-10-11T15:23:06.243Z,91468.41
2023-10-11T15:25:32.994Z,91469.16
2023-10-11T15:27:59.672Z,91480.22
2023-10-11T15:30:27.181Z,91479.47
2023-10-11T15:32:55.924Z,91486.16
2023-10-11T15:35:22.475Z,91483.88
2023-10-11T15:37:48.829Z,91488.06
2023-10-11T15:40:17.865Z,91489.78
2023-10-11T15:42:47.757Z,91485.00
2023-10-11T15:45:16.312Z,91485.88
2023-10-11T15:47:43.507Z,91487.31
2023-10-11T15:50:13.586Z,91495.09
2023-10-11T15:52:42.952Z,91498.53
2023-10-11T15:55:09.906Z,91503.34
2023-10-11T15:57:37.699Z,91502.34
2023-10-11T16:00:13.515Z,91501.50
2023-10-11T16:02:43.287Z,91500.13
2023-10-11T16:05:10.340Z,91501.28
2023-10-11T16:07:39.812Z,91505.31
2023-10-11T16:10:10.834Z,91504.63
2023-10-11T16:12:38.516Z,91507.63
2023-10-11T16:15:05.284Z,91505.75
2023-10-11T16:17:31.769Z,91513.13
2023-10-11T16:19:58.236Z,91510.13
2023-10-11T16:22:24.842Z,91514.78
2023-10-11T16:24:51.234Z,91518.00
2023-10-11T16:27:17.657Z,91519.00
2023-10-11T16:29:44.000Z,91520.16
2023-10-11T16:32:10.375Z,91526.25
2023-10-11T16:34:36.742Z,91522.75
2023-10-11T16:37:06.218Z,91521.69
2023-10-11T16:39:36.332Z,91519.69
2023-10-11T16:42:03.653Z,91522.28
2023-10-11T16:44:30.107Z,91529.53
2023-10-11T16:46:56.483Z,91528.16
2023-10-11T16:49:23.734Z,91531.03
2023-10-11T16:51:50.112Z,91536.91
2023-10-11T16:54:17.769Z,91535.91
2023-10-11T16:56:45.010Z,91536.41
2023-10-11T16:59:11.470Z,91540.78
2023-10-11T17:01:37.903Z,91544.47
2023-10-11T17:04:08.692Z,91543.75
2023-10-11T17:06:35.558Z,91536.94
2023-10-11T17:09:01.920Z,91539.47
2023-10-11T17:11:28.374Z,91552.09
2023-10-11T17:13:54.737Z,91552.53
2023-10-11T17:16:21.158Z,91548.84
2023-10-11T17:18:48.111Z,91550.72
2023-10-11T17:21:14.668Z,91548.53
2023-10-11T17:23:41.808Z,91553.28
2023-10-11T17:26:15.241Z,91550.00
2023-10-11T17:28:42.738Z,91557.22
2023-10-11T17:31:10.530Z,91561.69
2023-10-11T17:33:36.982Z,91567.50
2023-10-11T17:36:09.455Z,91562.00
2023-10-11T17:38:37.002Z,91566.44
2023-10-11T17:41:06.607Z,91563.31
2023-10-11T17:43:33.278Z,91567.09
2023-10-11T17:45:59.722Z,91577.16
2023-10-11T17:48:26.139Z,91572.06
2023-10-11T17:50:52.640Z,91578.84
2023-10-11T17:53:19.092Z,91577.72
2023-10-11T17:55:45.479Z,91575.81
2023-10-11T17:58:11.801Z,91573.94
2023-10-11T18:00:39.189Z,91591.88
2023-10-11T18:03:09.237Z,91585.91
2023-10-11T18:05:38.572Z,91585.00
2023-10-11T18:08:06.614Z,91581.13
2023-10-11T18:10:33.351Z,91582.56
2023-10-11T18:12:59.707Z,91581.25
2023-10-11T18:15:31.251Z,91575.19
2023-10-11T18:18:02.277Z,91584.94
2023-10-11T18:20:28.802Z,91574.28
2023-10-11T18:22:55.172Z,91585.13
2023-10-11T18:25:21.583Z,91584.09
2023-10-11T18:27:50.652Z,91587.13
2023-10-11T18:30:20.698Z,91603.41
2023-10-11T18:32:51.200Z,91588.75
2023-10-11T18:35:18.004Z,91599.44
2023-10-11T18:37:44.355Z,91616.16
2023-10-11T18:40:31.211Z,91606.22
2023-10-11T18:42:59.968Z,91614.63
2023-10-11T18:45:26.330Z,91615.28
2023-10-11T18:47:53.380Z,91616.59
2023-10-11T18:50:20.108Z,91620.88
2023-10-11T18:52:46.863Z,91620.16
2023-10-11T18:55:14.308Z,91621.97
2023-10-11T18:57:40.852Z,91626.78
2023-10-11T19:00:13.837Z,91619.22
2023-10-11T19:02:40.657Z,91622.13
2023-10-11T19:05:07.450Z,91619.34
2023-10-11T19:07:37.032Z,91627.94
2023-10-11T19:10:05.890Z,91625.84
2023-10-11T19:12:37.930Z,91627.59
2023-10-11T19:15:07.609Z,91624.13
2023-10-11T19:17:34.026Z,91621.41
2023-10-11T19:20:00.901Z,91632.72
2023-10-11T19:22:27.439Z,91630.03
2023-10-11T19:24:53.814Z,91636.47
2023-10-11T19:27:22.027Z,91633.53
2023-10-11T19:29:48.497Z,91633.09
2023-10-11T19:32:19.399Z,91641.22
2023-10-11T19:34:49.658Z,91641.47
2023-10-11T19:37:18.856Z,91649.63
2023-10-11T19:39:46.516Z,91641.44
2023-10-11T19:42:14.197Z,91641.44
2023-10-11T19:44:40.681Z,91630.38
2023-10-11T19:47:07.491Z,91643.47
2023-10-11T19:49:34.079Z,91647.66
2023-10-11T19:52:00.461Z,91657.78
2023-10-11T19:54:28.152Z,91654.75
2023-10-11T19:56:54.553Z,91655.06
2023-10-11T19:59:20.904Z,91654.41
2023-10-11T20:01:47.323Z,91656.72
2023-10-11T20:04:15.142Z,91664.78
2023-10-11T20:06:41.707Z,91663.25
2023-10-11T20:09:09.121Z,91662.94
2023-10-11T20:11:37.089Z,91668.34
2023-10-11T20:14:03.432Z,91668.53
2023-10-11T20:16:30.444Z,91665.59
2023-10-11T20:18:58.760Z,91663.81
2023-10-11T20:21:25.410Z,91670.84
2023-10-11T20:23:52.694Z,91675.50
2023-10-11T20:26:19.557Z,91673.34
2023-10-11T20:28:53.148Z,91671.09
2023-10-11T20:31:19.547Z,91673.00
2023-10-11T20:33:46.100Z,91677.81
2023-10-11T20:36:14.001Z,91679.63
2023-10-11T20:38:41.920Z,91680.28
2023-10-11T20:41:12.630Z,91672.22
2023-10-11T20:43:39.976Z,91680.63
2023-10-11T20:46:07.303Z,91687.13
2023-10-11T20:48:36.277Z,91680.34
2023-10-11T20:51:03.388Z,91696.53
2023-10-11T20:53:29.783Z,91690.09
2023-10-11T20:55:59.746Z,91689.75
2023-10-11T20:58:26.109Z,91688.41
2023-10-11T21:00:52.601Z,91694.00
2023-10-11T21:03:26.003Z,91695.44
2023-10-11T21:05:52.761Z,91690.63
2023-10-11T21:08:20.707Z,91687.56
2023-10-11T21:10:47.757Z,91683.59
2023-10-11T21:13:14.377Z,91682.66
2023-10-11T21:15:41.633Z,91684.31
2023-10-11T21:18:11.262Z,91678.41
2023-10-11T21:20:38.755Z,91688.06
2023-10-11T21:23:05.517Z,91682.94
2023-10-11T21:25:32.002Z,91679.19
2023-10-11T21:27:58.700Z,91672.91
2023-10-11T21:30:25.181Z,91677.53
2023-10-11T21:32:52.519Z,91672.78
2023-10-11T21:35:22.551Z,91672.56
2023-10-11T21:37:49.588Z,91673.00
2023-10-11T21:40:16.053Z,91677.59
2023-10-11T21:42:42.484Z,91676.91
2023-10-11T21:45:12.923Z,91680.28
2023-10-11T21:47:42.225Z,91680.59
2023-10-11T21:50:10.618Z,91687.91
2023-10-11T21:52:36.953Z,91690.44
2023-10-11T21:55:05.420Z,91683.31
2023-10-11T21:57:31.875Z,91679.94
2023-10-11T21:59:58.242Z,91683.13
2023-10-11T22:02:30.558Z,91678.56
2023-10-11T22:04:57.272Z,91681.75
2023-10-11T22:07:23.711Z,91687.44
2023-10-11T22:09:50.088Z,91684.38
2023-10-11T22:12:16.785Z,91686.38
2023-10-11T22:14:43.206Z,91681.28
2023-10-11T22:17:09.630Z,91682.13
2023-10-11T22:19:37.674Z,91677.84
2023-10-11T22:22:10.316Z,91683.81
2023-10-11T22:24:38.443Z,91677.75
2023-10-11T22:27:07.915Z,91680.22
2023-10-11T22:29:38.593Z,91679.28
2023-10-11T22:32:05.409Z,91684.34
2023-10-11T22:34:31.844Z,91684.91
2023-10-11T22:36:58.281Z,91682.41
2023-10-11T22:39:26.053Z,91676.78
2023-10-11T22:41:52.716Z,91672.38
2023-10-11T22:44:19.277Z,91669.56
2023-10-11T22:46:45.782Z,91672.41
2023-10-11T22:49:12.144Z,91670.19
2023-10-11T22:51:38.502Z,91664.44
2023-10-11T22:54:05.206Z,91665.56
2023-10-11T22:56:31.763Z,91666.19
2023-10-11T22:58:58.425Z,91662.56
2023-10-11T23:01:24.809Z,91672.84
2023-10-11T23:03:53.556Z,91665.97
2023-10-11T23:06:20.075Z,91668.78
2023-10-11T23:08:47.137Z,91668.53
2023-10-11T23:11:24.215Z,91671.44
2023-10-11T23:13:50.703Z,91664.97
2023-10-11T23:16:18.092Z,91661.41
2023-10-11T23:18:46.610Z,91668.13
2023-10-11T23:21:17.064Z,91671.50
2023-10-11T23:23:43.606Z,91671.97
2023-10-11T23:26:13.270Z,91669.31
2023-10-11T23:28:40.221Z,91682.44
2023-10-11T23:31:10.856Z,91684.28
2023-10-11T23:33:48.887Z,91679.69
2023-10-11T23:36:15.439Z,91677.94
2023-10-11T23:38:46.500Z,91684.41
2023-10-11T23:41:31.287Z,91686.41
2023-10-11T23:44:00.481Z,91690.44
2023-10-11T23:46:30.697Z,91687.81
2023-10-11T23:49:07.206Z,91684.69
2023-10-11T23:51:40.663Z,91684.59
2023-10-11T23:54:09.900Z,91683.22
2023-10-11T23:56:36.401Z,91677.19
2023-10-11T23:59:13.497Z,91674.38
